Time;durP1;ratioP1;P1;durP2;ratioP2;P2;SDS_P1;SDS_P2;PMS_P1;PMS_P2;Temp;Humidity;BMP_temperature;BMP_pressure;BME280_temperature;BME280_humidity;BME280_pressure;Samples;Min_cycle;Max_cycle;Signal;HPM_P1;HPM_P2
2021/06/18 00:01:49;;;;;;;2.58;2.10;;;;;;;25.00;52.14;95187.91;4967650;28;20394;-76
2021/06/18 00:04:15;;;;;;;3.35;2.45;;;;;;;25.00;52.26;95177.00;4968507;28;20067;-76
2021/06/18 00:06:40;;;;;;;2.63;2.10;;;;;;;24.98;52.00;95176.75;4970681;28;20026;-76
2021/06/18 00:09:07;;;;;;;2.75;2.35;;;;;;;24.89;51.80;95147.06;4986042;28;20186;-76
2021/06/18 00:11:32;;;;;;;3.25;2.20;;;;;;;24.98;51.65;95154.88;4983353;28;20049;-76
2021/06/18 00:13:58;;;;;;;3.42;2.20;;;;;;;24.93;51.98;95152.97;4975000;28;20035;-76
2021/06/18 00:16:24;;;;;;;3.40;2.10;;;;;;;24.97;51.79;95158.13;4968279;28;20038;-76
2021/06/18 00:18:49;;;;;;;2.10;1.85;;;;;;;24.96;52.02;95154.69;4968998;28;20066;-75
2021/06/18 00:21:15;;;;;;;3.03;2.00;;;;;;;24.88;51.85;95163.97;4970568;28;20037;-75
2021/06/18 00:23:40;;;;;;;2.80;2.08;;;;;;;24.93;51.72;95158.44;4970101;28;20125;-75
2021/06/18 00:26:06;;;;;;;2.80;1.85;;;;;;;24.81;51.93;95145.41;4971788;28;20037;-75
2021/06/18 00:28:31;;;;;;;2.83;2.13;;;;;;;24.94;51.72;95165.34;4954150;28;20030;-75
2021/06/18 00:31:00;;;;;;;2.20;1.90;;;;;;;24.94;51.70;95164.63;4969985;28;20035;-75
2021/06/18 00:33:26;;;;;;;2.80;1.93;;;;;;;24.94;51.55;95162.63;4987747;28;20034;-75
2021/06/18 00:35:51;;;;;;;2.10;1.77;;;;;;;24.94;51.63;95170.09;4971152;28;20112;-75
2021/06/18 00:38:17;;;;;;;2.38;1.92;;;;;;;24.82;51.77;95157.09;4988035;28;20030;-75
2021/06/18 00:40:45;;;;;;;3.15;2.15;;;;;;;24.92;51.92;95162.41;4987972;28;20034;-76
2021/06/18 00:43:10;;;;;;;2.75;1.88;;;;;;;24.92;51.47;95165.16;4953986;28;20026;-75
2021/06/18 00:45:36;;;;;;;3.28;2.35;;;;;;;24.88;51.81;95161.97;4970626;28;20030;-76
2021/06/18 00:48:01;;;;;;;2.90;1.90;;;;;;;24.89;51.66;95157.25;4954294;28;20500;-75
2021/06/18 00:50:27;;;;;;;2.97;2.20;;;;;;;24.93;51.82;95161.16;4977201;28;20045;-75
2021/06/18 00:52:53;;;;;;;3.17;2.00;;;;;;;24.91;51.78;95166.41;4968980;28;20504;-75
2021/06/18 00:55:18;;;;;;;3.63;1.85;;;;;;;24.93;51.57;95165.88;4957060;28;20042;-75
2021/06/18 00:57:44;;;;;;;2.40;1.92;;;;;;;24.88;51.29;95156.50;4971658;28;20069;-75
2021/06/18 01:00:12;;;;;;;3.45;2.17;;;;;;;24.85;51.47;95149.34;4973507;28;20038;-75
2021/06/18 01:02:38;;;;;;;3.65;2.10;;;;;;;24.87;51.46;95149.56;4985719;28;20116;-75
2021/06/18 01:05:05;;;;;;;2.28;1.70;;;;;;;24.91;51.56;95160.19;4969850;28;20493;-75
2021/06/18 01:07:36;;;;;;;2.80;2.20;;;;;;;24.90;51.45;95159.47;4971377;28;20049;-75
2021/06/18 01:10:45;;;;;;;2.88;1.95;;;;;;;24.90;51.27;95154.00;4971645;28;20034;-76
2021/06/18 01:13:30;;;;;;;2.30;1.80;;;;;;;24.88;51.67;95153.75;4960885;28;20050;-76
2021/06/18 01:16:19;;;;;;;2.80;2.08;;;;;;;24.88;51.59;95151.03;4972059;28;20026;-75
2021/06/18 01:18:54;;;;;;;2.60;1.73;;;;;;;24.87;51.86;95144.09;4964984;28;20049;-75
2021/06/18 01:21:20;;;;;;;2.72;2.08;;;;;;;24.87;51.29;95143.34;4958133;28;20830;-75
2021/06/18 01:24:05;;;;;;;3.17;2.10;;;;;;;24.86;51.38;95148.09;4991252;28;20034;-75
2021/06/18 01:26:59;;;;;;;2.55;1.90;;;;;;;24.86;51.27;95153.53;4975896;28;20141;-76
2021/06/18 01:29:24;;;;;;;3.45;1.85;;;;;;;24.83;51.74;95146.38;4972609;28;20041;-76
2021/06/18 01:31:50;;;;;;;2.83;1.90;;;;;;;24.85;51.69;95152.06;4956455;28;20030;-77
2021/06/18 01:34:19;;;;;;;2.83;1.98;;;;;;;24.83;51.71;95140.91;4969595;28;20548;-77
2021/06/18 01:36:48;;;;;;;2.40;2.03;;;;;;;24.85;51.50;95152.06;4958122;28;20053;-74
2021/06/18 01:39:13;;;;;;;2.40;1.60;;;;;;;24.85;51.50;95146.59;4969916;28;20034;-74
2021/06/18 01:41:39;;;;;;;3.05;1.90;;;;;;;24.84;51.66;95145.13;4956837;28;20022;-74
2021/06/18 01:44:04;;;;;;;3.10;1.90;;;;;;;24.71;51.54;95140.81;4956769;28;20030;-75
2021/06/18 01:46:32;;;;;;;3.25;2.00;;;;;;;24.84;51.18;95150.59;4969933;28;20081;-74
2021/06/18 01:49:03;;;;;;;2.53;1.70;;;;;;;24.83;51.33;95153.84;4974597;28;20045;-78
2021/06/18 01:51:28;;;;;;;2.70;1.88;;;;;;;24.83;51.21;95160.03;4990111;28;20053;-75
2021/06/18 01:53:54;;;;;;;2.00;1.80;;;;;;;24.69;51.56;95126.94;4955555;28;20450;-75
2021/06/18 01:56:20;;;;;;;2.70;1.85;;;;;;;24.73;51.41;95135.59;4969789;28;20113;-76
2021/06/18 01:58:47;;;;;;;3.42;1.92;;;;;;;24.79;51.50;95147.19;4970590;28;20027;-76
2021/06/18 02:01:15;;;;;;;3.38;2.00;;;;;;;24.82;51.02;95146.16;4954035;28;20035;-76
2021/06/18 02:03:42;;;;;;;2.75;1.80;;;;;;;24.74;51.63;95139.78;4956835;28;20033;-77
2021/06/18 02:06:07;;;;;;;2.03;1.80;;;;;;;24.81;51.52;95150.16;4956433;28;20251;-76
2021/06/18 02:08:33;;;;;;;3.53;2.00;;;;;;;24.82;51.40;95157.09;4989123;28;20493;-76
2021/06/18 02:10:58;;;;;;;2.45;1.90;;;;;;;24.78;51.04;95153.91;4972251;28;20037;-75
2021/06/18 02:13:27;;;;;;;2.00;1.80;;;;;;;24.80;51.00;95151.38;4971800;28;20050;-76
2021/06/18 02:15:52;;;;;;;2.90;1.73;;;;;;;24.66;50.98;95138.91;4972501;28;20037;-77
2021/06/18 02:18:20;;;;;;;4.10;2.00;;;;;;;24.80;51.09;95160.34;4952328;28;20027;-75
2021/06/18 02:20:46;;;;;;;3.15;1.80;;;;;;;24.79;50.93;95149.94;4955909;28;20034;-75
2021/06/18 02:23:11;;;;;;;2.92;2.10;;;;;;;24.69;51.16;95138.59;4969683;28;20035;-76
2021/06/18 02:25:37;;;;;;;2.38;1.90;;;;;;;24.80;51.01;95159.59;4954034;28;20522;-76
2021/06/18 02:28:03;;;;;;;3.30;2.00;;;;;;;24.80;51.41;95159.59;4970275;28;20031;-76
2021/06/18 02:30:29;;;;;;;2.20;1.75;;;;;;;24.79;50.94;95163.59;4979110;28;20048;-73
2021/06/18 02:32:56;;;;;;;2.50;2.10;;;;;;;24.79;50.99;95174.50;4979047;28;20034;-77
2021/06/18 02:35:23;;;;;;;3.38;2.00;;;;;;;24.80;51.05;95167.78;4971076;28;20106;-76
2021/06/18 02:37:48;;;;;;;4.22;2.00;;;;;;;24.80;51.40;95165.03;4973347;28;20022;-76
2021/06/18 02:40:14;;;;;;;3.58;1.85;;;;;;;24.79;51.06;95158.84;4983393;28;20041;-75
2021/06/18 02:42:39;;;;;;;2.33;1.60;;;;;;;24.80;51.15;95154.88;4987802;28;20084;-76
2021/06/18 02:45:05;;;;;;;2.13;1.80;;;;;;;24.81;50.77;95161.06;4970385;28;20022;-75
2021/06/18 02:47:33;;;;;;;3.05;1.80;;;;;;;24.81;50.85;95166.53;4970427;28;20154;-76
2021/06/18 02:50:02;;;;;;;2.38;2.00;;;;;;;24.62;50.93;95144.66;4972475;28;20018;-76
2021/06/18 02:52:57;;;;;;;3.13;1.90;;;;;;;24.78;50.94;95164.84;4972848;28;20026;-76
2021/06/18 02:55:44;;;;;;;1.92;1.70;;;;;;;24.77;51.00;95160.63;4983172;28;20057;-76
2021/06/18 02:58:24;;;;;;;2.22;2.03;;;;;;;24.78;50.82;95173.03;4975678;28;20034;-76
2021/06/18 03:00:50;;;;;;;;;;;;;;;24.76;50.68;95176.28;4972263;28;20029;-76
2021/06/18 03:03:18;;;;;;;2.42;1.88;;;;;;;24.77;51.15;95171.53;4971566;28;19914;-76
2021/06/18 03:05:47;;;;;;;2.35;1.90;;;;;;;24.73;51.15;95160.19;4988473;28;20034;-76
2021/06/18 03:08:12;;;;;;;2.55;1.75;;;;;;;24.56;51.26;95151.44;4971560;28;20116;-76
2021/06/18 03:10:41;;;;;;;2.25;1.95;;;;;;;24.73;51.00;95171.09;4967850;28;20453;-76
2021/06/18 03:13:12;;;;;;;2.42;1.70;;;;;;;24.64;51.22;95163.25;4976123;28;20058;-76
2021/06/18 03:15:44;;;;;;;3.03;2.35;;;;;;;24.48;50.91;95134.16;4956548;28;20117;-76
2021/06/18 03:18:12;;;;;;;2.42;1.80;;;;;;;24.76;50.94;95179.00;4952442;28;20030;-77
2021/06/18 03:20:37;;;;;;;4.53;1.98;;;;;;;24.63;50.89;95170.69;4973551;28;20495;-76
2021/06/18 03:23:05;;;;;;;2.63;1.90;;;;;;;24.76;50.96;95189.19;4970819;28;20041;-75
2021/06/18 03:25:35;;;;;;;3.13;2.10;;;;;;;24.75;51.10;95190.44;4954921;28;20033;-76
2021/06/18 03:28:01;;;;;;;2.50;1.77;;;;;;;24.76;50.66;95186.47;4954813;28;20030;-77
2021/06/18 03:30:27;;;;;;;2.38;1.95;;;;;;;24.77;50.68;95185.19;4971402;28;20109;-76
2021/06/18 03:32:52;;;;;;;2.13;1.85;;;;;;;24.60;50.96;95163.56;4971625;28;20045;-78
2021/06/18 03:35:19;;;;;;;2.63;1.80;;;;;;;24.76;51.30;95175.53;4955301;28;20038;-76
2021/06/18 03:37:45;;;;;;;2.90;1.75;;;;;;;24.65;51.18;95153.81;4988683;28;20026;-73
2021/06/18 03:40:11;;;;;;;2.00;1.70;;;;;;;24.79;51.44;95179.97;4948091;28;20041;-76
2021/06/18 03:42:36;;;;;;;4.38;1.77;;;;;;;24.81;51.62;95178.19;4967725;28;20023;-75
2021/06/18 03:45:03;;;;;;;1.88;1.60;;;;;;;24.82;51.68;95184.41;4970464;28;20473;-76
2021/06/18 03:47:29;;;;;;;2.33;1.80;;;;;;;24.82;51.53;95190.59;4968958;28;20031;-76
2021/06/18 03:49:54;;;;;;;4.97;2.08;;;;;;;24.82;51.55;95184.41;4976089;28;20485;-75
2021/06/18 03:52:20;;;;;;;2.85;1.60;;;;;;;24.84;51.34;95183.38;4954127;28;20049;-75
2021/06/18 03:54:46;;;;;;;3.38;1.83;;;;;;;24.89;50.90;95190.75;4974016;28;20050;-74
2021/06/18 03:57:13;;;;;;;3.25;2.00;;;;;;;24.94;51.14;95192.69;4978559;28;20022;-74
2021/06/18 03:59:40;;;;;;;2.83;1.90;;;;;;;25.00;50.65;95198.13;4977491;28;20036;-74
2021/06/18 04:02:05;;;;;;;2.47;1.85;;;;;;;25.06;51.11;95188.59;4960359;28;20034;-75
2021/06/18 04:04:31;;;;;;;2.40;1.58;;;;;;;25.17;50.55;95199.41;4968409;28;20053;-74
2021/06/18 04:06:57;;;;;;;2.78;1.80;;;;;;;25.09;50.16;95182.09;4952731;28;20122;-75
2021/06/18 04:09:23;;;;;;;2.30;1.80;;;;;;;25.07;50.07;95168.22;4969370;28;20473;-74
2021/06/18 04:11:48;;;;;;;2.83;1.70;;;;;;;25.42;49.81;95192.59;4963936;28;20054;-75
2021/06/18 04:14:14;;;;;;;2.65;1.80;;;;;;;25.54;49.62;95199.38;4970406;28;20045;-75
2021/06/18 04:16:40;;;;;;;3.13;1.70;;;;;;;25.61;49.15;95199.53;4984413;28;20583;-76
2021/06/18 04:19:09;;;;;;;3.05;1.63;;;;;;;25.73;49.10;95194.66;4962983;28;20046;-75
2021/06/18 04:21:35;;;;;;;2.07;1.70;;;;;;;25.80;48.82;95190.06;4968024;28;20045;-75
2021/06/18 04:24:01;;;;;;;2.17;1.80;;;;;;;25.91;48.94;95184.41;4973246;28;20606;-74
2021/06/18 04:26:26;;;;;;;2.33;2.08;;;;;;;25.98;48.44;95192.03;4972782;28;20030;-75
2021/06/18 04:28:53;;;;;;;2.90;2.05;;;;;;;26.04;47.95;95187.19;4980709;28;20405;-76
2021/06/18 04:31:18;;;;;;;2.60;2.00;;;;;;;26.09;48.37;95177.41;4972602;28;20756;-75
2021/06/18 04:36:19;;;;;;;2.88;2.17;;;;;;;26.27;48.27;95182.81;4475197;26;20143;-72
2021/06/18 04:38:45;;;;;;;2.80;2.00;;;;;;;26.27;47.78;95178.09;4975669;28;20037;-72
2021/06/18 04:41:10;;;;;;;3.97;2.38;;;;;;;26.40;47.66;95185.63;4990263;28;20037;-73
2021/06/18 04:43:36;;;;;;;2.75;2.20;;;;;;;26.45;47.63;95187.50;4991053;28;20080;-73
2021/06/18 04:46:01;;;;;;;3.03;2.33;;;;;;;26.53;47.88;95185.59;5009267;28;20033;-74
2021/06/18 04:48:28;;;;;;;3.00;2.15;;;;;;;26.58;47.59;95193.00;5006755;28;20030;-74
2021/06/18 04:50:54;;;;;;;5.38;2.80;;;;;;;26.62;47.39;95196.91;5010196;28;20038;-73
2021/06/18 04:53:20;;;;;;;3.50;2.53;;;;;;;26.70;47.74;95197.03;5007964;28;20539;-74
2021/06/18 04:55:45;;;;;;;4.45;2.50;;;;;;;26.75;47.44;95187.94;4984861;28;20096;-73
2021/06/18 04:58:11;;;;;;;4.88;3.00;;;;;;;26.78;47.48;95204.78;5008551;28;20022;-73
2021/06/18 05:00:37;;;;;;;4.25;2.85;;;;;;;26.84;48.19;95202.69;4991943;28;20031;-71
2021/06/18 05:03:02;;;;;;;6.22;3.20;;;;;;;26.92;48.86;95203.56;5009339;28;20037;-72
2021/06/18 05:05:28;;;;;;;4.93;3.30;;;;;;;26.99;48.54;95197.44;5009374;28;20038;-71
2021/06/18 05:07:54;;;;;;;4.35;2.90;;;;;;;27.03;48.79;95203.34;5008872;28;20461;-71
2021/06/18 05:10:20;;;;;;;6.90;3.17;;;;;;;27.07;49.16;95209.25;5009599;28;20413;-74
2021/06/18 05:12:46;;;;;;;4.85;3.30;;;;;;;27.11;48.92;95209.66;5009934;28;20111;-73
2021/06/18 05:15:12;;;;;;;8.15;3.90;;;;;;;27.13;48.89;95206.38;4975500;28;20030;-73
2021/06/18 05:17:37;;;;;;;6.47;3.75;;;;;;;27.06;47.13;95207.03;5013130;28;20484;-71
2021/06/18 05:20:03;;;;;;;8.93;4.95;;;;;;;26.98;47.06;95217.16;5012198;28;20025;-71
2021/06/18 05:22:29;;;;;;;7.85;5.15;;;;;;;26.86;47.16;95211.13;5009480;28;20041;-71
2021/06/18 05:24:54;;;;;;;10.75;4.95;;;;;;;26.85;47.05;95215.13;5008698;28;20029;-71
2021/06/18 05:27:20;;;;;;;8.23;5.20;;;;;;;26.72;47.64;95211.66;5009140;28;20092;-71
2021/06/18 05:29:45;;;;;;;9.10;5.55;;;;;;;26.65;47.98;95206.06;4992032;28;20022;-70
2021/06/18 05:32:11;;;;;;;7.15;5.07;;;;;;;26.61;47.95;95211.13;5009139;28;20480;-70
2021/06/18 05:34:36;;;;;;;6.93;5.13;;;;;;;26.58;49.01;95212.19;4991489;28;20413;-71
2021/06/18 05:37:02;;;;;;;8.60;5.07;;;;;;;26.51;49.32;95207.31;5008352;28;20049;-71
2021/06/18 05:39:28;;;;;;;8.38;5.65;;;;;;;26.58;49.78;95212.19;5008845;28;20068;-71
2021/06/18 05:41:53;;;;;;;9.07;5.63;;;;;;;26.56;53.52;95214.69;5017262;28;20029;-71
2021/06/18 05:44:19;;;;;;;11.77;5.43;;;;;;;26.44;50.81;95214.16;5008712;28;20533;-72
2021/06/18 05:46:44;;;;;;;9.15;5.55;;;;;;;26.39;49.81;95217.72;5008802;28;20030;-71
2021/06/18 05:49:10;;;;;;;10.32;5.28;;;;;;;26.39;50.44;95212.25;5008127;28;20026;-71
2021/06/18 05:51:36;;;;;;;10.57;5.43;;;;;;;26.35;48.83;95219.28;5008556;28;20037;-72
2021/06/18 05:54:01;;;;;;;8.05;5.18;;;;;;;26.35;48.47;95216.56;5008437;28;20028;-70
2021/06/18 05:56:27;;;;;;;8.77;4.82;;;;;;;26.36;48.18;95223.50;5008228;28;20014;-70
2021/06/18 05:58:53;;;;;;;8.32;5.15;;;;;;;26.37;48.59;95214.78;5008381;28;20427;-70
2021/06/18 06:01:18;;;;;;;9.85;5.45;;;;;;;26.46;48.31;95216.38;5008803;28;20108;-70
2021/06/18 06:03:44;;;;;;;8.73;5.50;;;;;;;26.40;48.26;95207.53;5008155;28;20026;-69
2021/06/18 06:06:10;;;;;;;7.97;5.13;;;;;;;26.46;48.41;95206.16;4989500;28;20037;-70
2021/06/18 06:08:36;;;;;;;9.02;5.22;;;;;;;26.50;48.49;95217.53;5017066;28;20048;-70
2021/06/18 06:11:01;;;;;;;8.75;5.53;;;;;;;26.58;48.52;95201.22;5010344;28;20021;-70
2021/06/18 06:13:27;;;;;;;8.35;6.00;;;;;;;26.63;48.09;95203.13;5008241;28;20088;-71
2021/06/18 06:15:52;;;;;;;8.73;5.57;;;;;;;26.64;48.09;95199.13;5002580;28;20531;-71
2021/06/18 06:18:18;;;;;;;10.77;5.18;;;;;;;26.71;48.00;95193.00;5004511;28;20038;-70
2021/06/18 06:20:43;;;;;;;8.73;5.93;;;;;;;26.77;47.89;95192.38;5002147;28;20041;-70
2021/06/18 06:23:09;;;;;;;9.68;4.75;;;;;;;26.83;48.01;95184.03;4995546;28;20038;-70
2021/06/18 06:25:35;;;;;;;9.55;6.32;;;;;;;26.86;47.77;95186.47;5002474;28;20771;-70
2021/06/18 06:28:00;;;;;;;11.00;5.82;;;;;;;26.76;47.62;95167.50;4995186;28;20087;-71
2021/06/18 06:30:26;;;;;;;11.63;5.75;;;;;;;26.95;47.55;95186.06;5003333;28;20509;-71
2021/06/18 06:32:51;;;;;;;8.05;4.97;;;;;;;26.99;47.33;95180.97;5007151;28;20026;-71
2021/06/18 06:35:17;;;;;;;7.78;5.05;;;;;;;26.99;47.22;95178.25;5007062;28;20092;-71
2021/06/18 06:37:42;;;;;;;9.25;5.57;;;;;;;27.07;46.98;95176.34;5007307;28;20014;-71
2021/06/18 06:40:12;;;;;;;8.23;5.30;;;;;;;27.10;46.87;95169.81;4994727;28;20504;-70
2021/06/18 06:42:37;;;;;;;;;;;;;;;27.23;46.59;95182.75;4990364;28;20385;-70
2021/06/18 06:45:04;;;;;;;10.77;5.50;;;;;;;27.21;46.54;95166.84;5006803;28;19944;-70
2021/06/18 06:47:30;;;;;;;7.20;5.05;;;;;;;27.26;46.70;95176.94;5005622;28;20285;-70
2021/06/18 06:49:55;;;;;;;9.98;4.80;;;;;;;27.32;46.44;95174.81;5006768;28;20503;-70
2021/06/18 06:52:21;;;;;;;11.85;5.65;;;;;;;27.32;46.38;95169.31;5005714;28;20484;-71
2021/06/18 06:54:46;;;;;;;9.05;5.45;;;;;;;27.42;46.45;95167.63;5016649;28;20061;-72
2021/06/18 06:57:14;;;;;;;10.15;5.43;;;;;;;27.29;46.30;95148.44;5006128;28;20021;-69
2021/06/18 06:59:40;;;;;;;8.30;5.25;;;;;;;27.48;46.65;95160.00;5004887;28;20040;-70
2021/06/18 07:02:05;;;;;;;9.93;5.53;;;;;;;27.48;46.17;95149.03;4988223;28;20038;-70
2021/06/18 07:04:31;;;;;;;12.75;6.13;;;;;;;27.50;46.13;95154.75;5004200;28;20026;-70
2021/06/18 07:06:56;;;;;;;8.40;6.03;;;;;;;27.49;45.61;95156.72;5000318;28;20775;-70
2021/06/18 07:09:22;;;;;;;9.43;4.80;;;;;;;27.51;46.33;95150.75;5005887;28;20022;-71
2021/06/18 07:11:48;;;;;;;8.52;4.97;;;;;;;27.53;45.60;95146.19;5006552;28;20040;-72
2021/06/18 07:14:13;;;;;;;7.93;4.88;;;;;;;27.50;45.58;95149.25;4989943;28;20032;-72
2021/06/18 07:16:39;;;;;;;7.60;4.78;;;;;;;27.46;45.57;95129.63;5007107;28;20045;-70
2021/06/18 07:19:10;;;;;;;9.80;5.20;;;;;;;27.41;46.98;95144.19;5006691;28;20018;-70
2021/06/18 07:21:35;;;;;;;10.38;5.22;;;;;;;27.26;47.52;95144.03;5006378;28;20044;-70
2021/06/18 07:24:01;;;;;;;11.18;5.47;;;;;;;27.19;48.13;95139.22;5002249;28;20030;-69
2021/06/18 07:26:26;;;;;;;9.55;5.25;;;;;;;27.12;48.27;95134.38;4986530;28;20018;-71
2021/06/18 07:28:52;;;;;;;9.57;4.57;;;;;;;27.05;48.19;95132.25;5006323;28;20037;-71
2021/06/18 07:31:17;;;;;;;8.82;4.72;;;;;;;27.04;47.78;95122.59;5005697;28;20021;-71
2021/06/18 07:33:43;;;;;;;7.95;4.57;;;;;;;26.97;47.78;95128.69;5006219;28;20043;-71
2021/06/18 07:36:08;;;;;;;9.63;4.60;;;;;;;26.91;48.01;95130.81;5006245;28;20046;-71
2021/06/18 07:38:34;;;;;;;7.18;4.63;;;;;;;26.91;47.77;95128.09;5006152;28;20048;-71
2021/06/18 07:40:59;;;;;;;7.20;3.95;;;;;;;26.79;47.73;95118.59;5006383;28;20048;-71
2021/06/18 07:43:25;;;;;;;6.50;3.90;;;;;;;26.76;47.78;95119.63;5005945;28;20084;-71
2021/06/18 07:45:50;;;;;;;7.03;4.40;;;;;;;26.76;47.22;95123.66;4989236;28;20032;-71
2021/06/18 07:48:16;;;;;;;8.65;4.05;;;;;;;26.75;47.01;95119.44;4989000;28;20084;-71
2021/06/18 07:50:41;;;;;;;5.95;3.83;;;;;;;26.71;47.62;95121.75;5006051;28;20056;-70
2021/06/18 07:53:07;;;;;;;6.28;3.90;;;;;;;26.69;47.63;95116.06;4987425;28;20068;-71
2021/06/18 07:55:32;;;;;;;7.03;3.55;;;;;;;26.61;47.66;95112.50;5005609;28;20670;-71
2021/06/18 07:57:58;;;;;;;5.63;3.70;;;;;;;26.54;47.23;95119.34;5005994;28;20787;-72
2021/06/18 08:00:23;;;;;;;7.72;3.75;;;;;;;26.49;48.20;95122.19;5006430;28;20129;-71
2021/06/18 08:02:49;;;;;;;5.47;3.92;;;;;;;26.44;47.91;95103.84;5007487;28;20037;-71
2021/06/18 08:05:15;;;;;;;5.85;3.72;;;;;;;26.50;47.83;95115.44;5009915;28;20034;-71
2021/06/18 08:07:40;;;;;;;6.85;3.50;;;;;;;26.44;48.20;95114.81;5009884;28;20511;-70
2021/06/18 08:10:07;;;;;;;6.25;3.50;;;;;;;26.46;47.69;95121.25;4992696;28;20416;-70
2021/06/18 08:12:33;;;;;;;6.15;3.75;;;;;;;26.44;47.80;95120.28;5017293;28;20044;-71
2021/06/18 08:14:58;;;;;;;4.47;3.65;;;;;;;26.41;47.73;95115.88;5010032;28;20017;-71
2021/06/18 08:17:24;;;;;;;6.95;4.13;;;;;;;26.27;47.59;95099.94;5010154;28;20416;-70
2021/06/18 08:19:49;;;;;;;4.10;3.60;;;;;;;26.37;47.83;95115.47;4992034;28;20041;-70
2021/06/18 08:22:14;;;;;;;6.15;3.35;;;;;;;26.36;47.03;95109.22;5009823;28;20037;-70
2021/06/18 08:24:40;;;;;;;4.07;2.90;;;;;;;26.32;47.61;95108.06;5008770;28;20042;-70
2021/06/18 08:27:06;;;;;;;5.25;3.33;;;;;;;26.27;47.60;95108.88;5009755;28;20084;-70
2021/06/18 08:29:31;;;;;;;5.60;3.13;;;;;;;26.26;47.72;95110.13;5014755;28;20085;-71
2021/06/18 08:31:57;;;;;;;4.68;3.60;;;;;;;26.23;47.72;95105.00;5009988;28;20026;-71
2021/06/18 08:34:22;;;;;;;5.35;3.03;;;;;;;26.24;47.68;95101.72;5009940;28;20029;-70
2021/06/18 08:36:47;;;;;;;5.00;3.10;;;;;;;26.32;46.64;95102.59;5009433;28;20726;-70
2021/06/18 08:39:13;;;;;;;5.50;3.10;;;;;;;26.26;46.92;95104.66;5009792;28;20168;-70
2021/06/18 08:41:39;;;;;;;4.05;3.25;;;;;;;26.19;47.20;95088.88;5009469;28;20029;-71
2021/06/18 08:44:04;;;;;;;5.22;2.58;;;;;;;26.21;47.40;95094.56;5009383;28;20434;-69
2021/06/18 08:46:30;;;;;;;4.65;2.80;;;;;;;26.20;47.42;95106.75;5009722;28;20056;-70
2021/06/18 08:48:55;;;;;;;4.30;2.70;;;;;;;26.19;46.57;95099.84;5009534;28;20021;-70
2021/06/18 08:51:21;;;;;;;4.15;2.72;;;;;;;26.19;46.88;95094.34;5008736;28;20621;-71
2021/06/18 08:53:47;;;;;;;4.60;2.67;;;;;;;26.14;46.44;95086.97;5010891;28;20083;-72
2021/06/18 08:56:12;;;;;;;24.50;10.35;;;;;;;26.34;46.98;95094.59;4990209;28;20018;-74
2021/06/18 08:58:38;;;;;;;6.32;2.33;;;;;;;26.43;46.26;95085.97;5006882;28;20046;-78
2021/06/18 09:01:04;;;;;;;3.92;2.47;;;;;;;26.18;46.16;95065.50;5020794;28;20029;-89
2021/06/18 09:03:44;;;;;;;5.00;2.92;;;;;;;26.28;45.80;95088.50;4991149;28;20053;-73
2021/06/18 09:06:23;;;;;;;5.60;2.30;;;;;;;26.25;47.17;95086.03;5016130;28;20025;-73
2021/06/18 09:09:22;;;;;;;2.90;2.28;;;;;;;26.28;45.44;95091.22;5008727;28;20042;-72
2021/06/18 09:11:57;;;;;;;4.18;2.22;;;;;;;26.54;43.44;95091.22;4962533;28;20046;-72
2021/06/18 09:14:27;;;;;;;2.45;2.05;;;;;;;26.52;42.87;95083.53;5006441;28;20033;-72
2021/06/18 09:17:03;;;;;;;;;;;;;;;26.64;43.68;95089.53;4991162;28;20033;-72
2021/06/18 09:19:28;;;;;;;3.42;2.10;;;;;;;26.82;42.70;95081.16;5008911;28;19910;-72
2021/06/18 09:21:57;;;;;;;5.13;2.03;;;;;;;26.98;42.54;95096.53;5008084;28;20033;-72
2021/06/18 09:24:28;;;;;;;2.17;1.90;;;;;;;27.01;42.74;95090.75;5008615;28;20507;-75
2021/06/18 09:26:53;;;;;;;2.60;2.03;;;;;;;26.99;42.37;95046.66;4990678;28;20033;-72
2021/06/18 09:29:19;;;;;;;4.30;2.50;;;;;;;27.39;41.83;95080.91;4980874;28;20026;-73
2021/06/18 09:31:53;;;;;;;3.00;2.22;;;;;;;27.43;41.96;95081.31;5008687;28;20041;-71
2021/06/18 09:34:50;;;;;;;3.83;2.00;;;;;;;27.52;41.36;95072.63;5007844;28;20029;-74
2021/06/18 09:37:39;;;;;;;2.83;1.80;;;;;;;27.65;41.76;95075.31;5007225;28;20184;-75
2021/06/18 09:40:08;;;;;;;3.97;1.95;;;;;;;27.70;41.78;95074.44;5008355;28;20567;-75
2021/06/18 09:42:56;;;;;;;3.28;2.13;;;;;;;27.70;42.13;95055.22;5008039;28;20021;-75
2021/06/18 09:45:32;;;;;;;2.75;2.30;;;;;;;27.80;41.87;95054.97;4993305;28;20045;-73
2021/06/18 09:48:10;;;;;;;2.40;1.85;;;;;;;27.92;42.68;95072.63;4974377;28;20048;-72
2021/06/18 09:50:39;;;;;;;2.13;1.70;;;;;;;27.95;42.64;95066.06;5008036;28;20064;-74
2021/06/18 09:53:14;;;;;;;5.85;1.92;;;;;;;27.76;42.95;95043.59;5008152;28;20033;-72
2021/06/18 09:55:41;;;;;;;4.07;2.10;;;;;;;27.85;42.96;95062.31;5007328;28;20044;-74
2021/06/18 09:58:06;;;;;;;2.47;1.95;;;;;;;27.66;43.31;95039.13;4940124;28;20045;-75
2021/06/18 10:00:32;;;;;;;4.32;2.13;;;;;;;27.50;43.20;95014.81;4996116;28;20034;-75
2021/06/18 10:02:57;;;;;;;3.88;2.20;;;;;;;27.59;43.53;95033.56;4990495;28;20034;-73
2021/06/18 10:05:25;;;;;;;3.95;1.90;;;;;;;27.83;43.06;95059.38;5006024;28;20038;-75
2021/06/18 10:07:53;;;;;;;6.15;2.20;;;;;;;27.84;43.30;95060.84;4985711;28;20141;-75
2021/06/18 10:10:27;;;;;;;2.65;2.05;;;;;;;27.91;42.70;95054.69;4992760;28;20038;-76
2021/06/18 10:12:56;;;;;;;3.20;1.95;;;;;;;27.98;43.34;95045.78;5008103;28;20029;-71
2021/06/18 10:15:23;;;;;;;2.53;1.90;;;;;;;28.36;42.68;95044.75;5008483;28;20163;-76
2021/06/18 10:17:50;;;;;;;3.50;2.20;;;;;;;28.58;41.55;95048.88;5011351;28;20500;-75
2021/06/18 10:20:16;;;;;;;3.15;2.10;;;;;;;28.67;41.05;95045.66;5008913;28;20041;-72
2021/06/18 10:22:54;;;;;;;3.55;1.90;;;;;;;28.47;40.26;95049.19;5012182;28;20499;-77
2021/06/18 10:25:42;;;;;;;3.17;1.80;;;;;;;28.36;40.31;95052.25;5022057;28;20037;-76
2021/06/18 10:28:10;;;;;;;3.45;1.80;;;;;;;28.29;41.06;95047.44;5007455;28;20026;-73
2021/06/18 10:30:41;;;;;;;3.08;2.10;;;;;;;28.22;41.09;95039.91;5020463;28;20029;-79
2021/06/18 10:33:25;;;;;;;3.50;1.90;;;;;;;28.16;41.49;95039.31;5010188;28;20033;-80
2021/06/18 10:36:03;;;;;;;3.30;1.98;;;;;;;27.75;41.44;94991.97;5010880;28;20060;-80
2021/06/18 10:38:31;;;;;;;2.53;1.90;;;;;;;27.80;41.44;95022.03;5009746;28;20456;-79
2021/06/18 10:41:13;;;;;;;2.80;1.90;;;;;;;27.70;41.44;95023.06;4994212;28;20026;-78
2021/06/18 10:43:39;;;;;;;2.55;1.85;;;;;;;27.85;41.38;95045.84;5023632;28;20032;-79
2021/06/18 10:46:32;;;;;;;3.13;2.60;;;;;;;27.77;41.24;95034.09;5020620;28;20120;-79
2021/06/18 10:49:35;;;;;;;2.83;2.10;;;;;;;27.65;41.47;95036.91;5011265;28;20554;-79
2021/06/18 10:52:01;;;;;;;2.97;2.00;;;;;;;27.27;42.00;94997.41;5012197;28;20116;-79
2021/06/18 10:54:47;;;;;;;3.75;2.05;;;;;;;27.48;42.34;95025.59;5004853;28;20042;-80
2021/06/18 10:57:23;;;;;;;3.80;2.25;;;;;;;27.42;42.33;95025.72;5022165;28;20029;-78
2021/06/18 10:59:49;;;;;;;2.42;1.80;;;;;;;27.35;42.32;95020.16;5019015;28;20025;-79
2021/06/18 11:02:25;;;;;;;2.75;1.90;;;;;;;27.30;42.49;95024.50;5014176;28;20056;-79
2021/06/18 11:04:52;;;;;;;3.35;1.85;;;;;;;27.00;42.54;94990.59;5019541;28;20099;-80
2021/06/18 11:07:19;;;;;;;3.63;1.75;;;;;;;27.02;42.66;94999.00;5005545;28;20738;-79
2021/06/18 11:09:45;;;;;;;2.90;2.03;;;;;;;26.89;42.88;94996.31;5020070;28;20051;-79
2021/06/18 11:12:23;;;;;;;2.72;1.95;;;;;;;27.09;43.05;95020.28;5007811;28;20446;-80
2021/06/18 11:14:55;;;;;;;4.40;2.20;;;;;;;26.97;43.21;95012.84;5016979;28;20025;-80
2021/06/18 11:17:58;;;;;;;3.08;2.00;;;;;;;27.00;43.22;95006.31;5012548;28;20459;-79
2021/06/18 11:20:33;;;;;;;4.03;2.03;;;;;;;26.95;43.33;95004.41;5005685;28;20500;-79
2021/06/18 11:23:13;;;;;;;3.25;1.90;;;;;;;26.72;43.65;94961.59;5012896;28;20017;-79
2021/06/18 11:25:42;;;;;;;3.90;2.13;;;;;;;26.99;43.48;94999.34;5006210;28;20017;-80
2021/06/18 11:28:32;;;;;;;3.13;2.03;;;;;;;26.91;43.84;95004.75;5009130;28;20567;-80
2021/06/18 11:31:13;;;;;;;2.38;2.00;;;;;;;26.88;43.97;94994.81;5019519;28;20276;-79
2021/06/18 11:33:49;;;;;;;4.30;2.10;;;;;;;26.97;43.59;94991.66;5007479;28;20030;-79
2021/06/18 11:36:17;;;;;;;5.47;2.38;;;;;;;26.88;43.93;94997.56;5014472;28;20072;-79
2021/06/18 11:39:03;;;;;;;7.13;2.42;;;;;;;26.78;44.14;94991.03;5017341;28;20480;-79
2021/06/18 11:41:30;;;;;;;4.22;2.42;;;;;;;26.63;44.02;94983.94;4999330;28;20503;-79
2021/06/18 11:43:59;;;;;;;4.68;2.13;;;;;;;26.73;44.35;94998.69;5018144;28;20018;-79